Details From SBBR - Brasilia Presidente Juscelino Kubitsch
To SBGO - Santo Genoveva
Flight Number -
Tags generated
Created
Modified
Stats Distance 88 nm / 163 km
Max Altitude 5,500 ft / 1,676 m
Waypoints 4
Social Downloads 0
Likes 0
Share VATSIM

Download

Looking for another format? Having issues loading an existing format? Contact us
Advertisement - Login to hide

Notes

Basic altitude profile: - Ascent Rate: 1000ft/min - Ascent Speed: 250kts - Cruise Altitude: 9000ft - Cruise Speed: 420kts - Descent Rate: 1000ft/min - Descent Speed: 250kts Options: - Use NATs: yes - Use PACOTS: yes - Use low airways: yes - Use high airways: yes

Route

SBBR GOMAL W10 GOI SBGO

ID Type Via Altitude Latitude Longitude Leg Dist Tot Dist Heading (true) Name
O SBBR APT - 0 ft / 0 m -15.87110˚ -47.91863˚ - 0 nm - Brasilia Presidente Juscelino Kubitsch
GOMAL FIX - 3,200 ft / 975 m -16.49500˚ -48.99767˚ 72 nm 72 nm 239° / 239° -
GOI VOR W10 (AWY-LO) 5,500 ft / 1,676 m -16.63243˚ -49.21536˚ 15 nm 87 nm 237° / 237° GOIANIA VOR-DME
O SBGO APT - 0 ft / 0 m -16.63203˚ -49.22069˚ 0 nm 87 nm 274° / 274° Santo Genoveva

Altitude Profile

Advertisement - Login to hide

SBBR

Details ICAO SBBR (BSB)
Name Brasilia Presidente Juscelino Kubitsch
Region Brazil
Timezone America/Sao_Paulo (UTC-2.0)
Stats Elevation 3,479 ft / 1,060 m (AMSL)
Location -15.871101° -47.918626°
Runways 2
Magnetic Variation 21.549° W

METAR

SBBR 131900Z 32011KT 280V350 9999 SCT025 FEW040TCU BKN070 24/18 Q1016

Decode

TAF

TAF SBBR 131600Z 1318/1418 08008KT 9999 SCT020 FEW030TCU TX21/1319Z TN18/1407Z FM132200 09007KT 9999 SCT015 TEMPO 1402/1407 9000 RA SCT012 FM141100 10009KT 9999 SCT020 RMK PDF

Decode

Departure Runways

ID Width Length Bearing (true) Bearing (mag) Surface Threshold Offset Overrun Length
11L 148 ft / 45 m 10,493 ft / 3,198 m 86.35° 107.90° Asphalt 0 ft / 0 m 200 ft / 61 m
11R 148 ft / 45 m 10,839 ft / 3,304 m 86.00° 107.55° Asphalt 2,635 ft / 803 m 200 ft / 61 m
29L 148 ft / 45 m 10,839 ft / 3,304 m 265.99° 287.54° Asphalt 0 ft / 0 m 200 ft / 61 m
29R 148 ft / 45 m 10,493 ft / 3,198 m 266.34° 287.89° Asphalt 0 ft / 0 m 200 ft / 61 m

SBGO

Details ICAO SBGO (GYN)
Name Santo Genoveva
Region Brazil
Timezone America/Sao_Paulo (UTC-2.0)
Stats Elevation 2,450 ft / 747 m (AMSL)
Location -16.632032° -49.220686°
Runways 1
Magnetic Variation 20.988° W

METAR

SBGO 131900Z VRB02KT 5000 -RA SCT025 FEW045TCU OVC070 24/20 Q1014

Decode

TAF

TAF SBGO 131600Z 1318/1418 05009KT 9999 SCT030 TX27/1319Z TN20/1408Z PROB30 TEMPO 1401/1404 RA SCT020 FM141100 07008KT 9999 SCT020 RMK PDF

Decode

Destination Runways

ID Width Length Bearing (true) Bearing (mag) Surface Threshold Offset Overrun Length
14 148 ft / 45 m 8,208 ft / 2,502 m 120.42° 141.41° Asphalt 0 ft / 0 m 0 ft / 0 m
32 148 ft / 45 m 8,208 ft / 2,502 m 300.41° 321.40° Asphalt 980 ft / 299 m 0 ft / 0 m

Popular Alternatives